Time;durP1;ratioP1;P1;durP2;ratioP2;P2;SDS_P1;SDS_P2;PMS_P1;PMS_P2;Temp;Humidity;BMP_temperature;BMP_pressure;BME280_temperature;BME280_humidity;BME280_pressure;Samples;Min_cycle;Max_cycle;Signal;HPM_P1;HPM_P2
2022/05/12 00:00:51;;;;;;;;;;;;;;;20.17;48.39;101405.84;6132287;23;19913;-78
2022/05/12 00:03:17;;;;;;;;;;;;;;;20.16;48.45;101404.94;6107567;23;19921;-78
2022/05/12 00:05:43;;;;;;;;;;;;;;;20.17;48.34;101411.06;6158243;23;20321;-78
2022/05/12 00:08:09;;;;;;;;;;;;;;;20.17;48.26;101409.31;6132141;23;19923;-77
2022/05/12 00:10:34;;;;;;;;;;;;;;;20.17;48.37;101416.28;6158210;23;19987;-77
2022/05/12 00:12:59;;;;;;;;;;;;;;;20.16;48.23;101423.25;6132356;23;19917;-78
2022/05/12 00:15:26;;;;;;;;;;;;;;;20.16;48.27;101433.69;6132353;23;19912;-77
2022/05/12 00:17:51;;;;;;;;;;;;;;;20.17;48.26;101431.97;6132373;23;20237;-78
2022/05/12 00:20:18;;;;;;;;;;;;;;;20.18;48.34;101433.69;6133443;23;19913;-77
2022/05/12 00:22:43;;;;;;;;;;;;;;;20.16;48.17;101441.53;6158736;23;19909;-78
2022/05/12 00:25:10;;;;;;;;;;;;;;;20.16;48.27;101435.44;6158255;23;19979;-78
2022/05/12 00:27:35;;;;;;;;;;;;;;;20.15;48.38;101437.22;6131943;23;19913;-78
2022/05/12 00:30:01;;;;;;;;;;;;;;;20.14;48.15;101449.41;6132349;23;19913;-78
2022/05/12 00:32:26;;;;;;;;;;;;;;;20.17;48.17;101450.25;6158571;23;19983;-78
2022/05/12 00:34:51;;;;;;;;;;;;;;;20.15;48.16;101442.44;6132334;23;19909;-78
2022/05/12 00:37:16;;;;;;;;;;;;;;;20.14;48.16;101457.25;6107924;23;20304;-78
2022/05/12 00:39:42;;;;;;;;;;;;;;;20.14;48.20;101453.75;6158015;23;19908;-78
2022/05/12 00:42:07;;;;;;;;;;;;;;;20.14;48.12;101449.41;6158130;23;20322;-78
2022/05/12 00:44:32;;;;;;;;;;;;;;;20.13;47.96;101452.88;6132088;23;19916;-78
2022/05/12 00:46:57;;;;;;;;;;;;;;;20.13;48.11;101452.88;6158555;23;19920;-78
2022/05/12 00:49:29;;;;;;;;;;;;;;;20.13;48.04;101455.50;6132137;23;19913;-78
2022/05/12 00:52:11;;;;;;;;;;;;;;;20.12;48.12;101450.28;6161147;23;19915;-78
2022/05/12 00:54:40;;;;;;;;;;;;;;;20.14;48.05;101464.19;6131795;23;19908;-78
2022/05/12 00:57:07;;;;;;;;;;;;;;;20.13;48.03;101460.72;6158066;23;19908;-78
2022/05/12 00:59:33;;;;;;;;;;;;;;;20.16;47.99;101469.41;6158281;23;19959;-78
2022/05/12 01:02:00;;;;;;;;;;;;;;;20.13;48.03;101468.56;6133033;23;19915;-78
2022/05/12 01:04:26;;;;;;;;;;;;;;;20.13;47.91;101472.94;6158091;23;19923;-78
2022/05/12 01:06:52;;;;;;;;;;;;;;;20.12;47.85;101473.81;6158346;23;20309;-78
2022/05/12 01:09:18;;;;;;;;;;;;;;;20.11;48.21;101470.34;6131806;23;19908;-78
2022/05/12 01:11:44;;;;;;;;;;;;;;;20.11;47.97;101474.69;6157948;23;20322;-78
2022/05/12 01:14:10;;;;;;;;;;;;;;;20.13;48.04;101483.38;6157951;23;19932;-77
2022/05/12 01:16:43;;;;;;;;;;;;;;;20.11;47.94;101486.00;6131897;23;19919;-78
2022/05/12 01:19:12;;;;;;;;;;;;;;;20.11;48.04;101486.00;6157800;23;19908;-77
2022/05/12 01:21:37;;;;;;;;;;;;;;;20.10;48.11;101484.28;6158033;23;20214;-77
2022/05/12 01:24:02;;;;;;;;;;;;;;;20.11;48.06;101493.00;6158188;23;19915;-78
2022/05/12 01:26:28;;;;;;;;;;;;;;;20.12;48.04;101492.09;6158185;23;19913;-78
2022/05/12 01:28:53;;;;;;;;;;;;;;;20.12;48.11;101489.47;6157980;23;20345;-77
2022/05/12 01:31:20;;;;;;;;;;;;;;;20.11;48.14;101490.38;6131723;23;20313;-80
2022/05/12 01:33:45;;;;;;;;;;;;;;;20.10;47.98;101486.91;6157855;23;20374;-81
2022/05/12 01:36:10;;;;;;;;;;;;;;;20.11;48.10;101499.06;6158114;23;19959;-79
2022/05/12 01:38:35;;;;;;;;;;;;;;;20.11;48.14;101493.84;6157666;23;19917;-79
2022/05/12 01:41:01;;;;;;;;;;;;;;;20.11;48.15;101498.22;6157878;23;19947;-78
2022/05/12 01:43:26;;;;;;;;;;;;;;;20.12;48.11;101502.53;6133595;23;19917;-78
2022/05/12 01:45:51;;;;;;;;;;;;;;;20.11;48.18;101500.81;6107151;23;19923;-78
2022/05/12 01:48:17;;;;;;;;;;;;;;;20.11;48.14;101508.66;6157733;23;19909;-78
2022/05/12 01:50:44;;;;;;;;;;;;;;;20.10;48.16;101507.81;6157389;23;19913;-78
2022/05/12 01:53:10;;;;;;;;;;;;;;;20.11;48.13;101506.06;6131134;23;19909;-78
2022/05/12 01:55:36;;;;;;;;;;;;;;;20.10;48.20;101499.97;6157384;23;20013;-78
2022/05/12 01:58:01;;;;;;;;;;;;;;;20.11;48.13;101503.44;6157387;23;19908;-77
2022/05/12 02:00:28;;;;;;;;;;;;;;;20.10;48.21;101513.03;6157247;23;19983;-78
2022/05/12 02:02:53;;;;;;;;;;;;;;;20.12;48.04;101515.59;6157408;23;19909;-78
2022/05/12 02:05:19;;;;;;;;;;;;;;;20.11;48.23;101511.28;6131307;23;19916;-78
2022/05/12 02:07:46;;;;;;;;;;;;;;;20.11;48.25;101519.97;6131289;23;20040;-78
2022/05/12 02:10:15;;;;;;;;;;;;;;;20.11;48.07;101521.72;6157425;23;20324;-77
2022/05/12 02:12:40;;;;;;;;;;;;;;;20.11;48.12;101527.81;6157170;23;19940;-78
2022/05/12 02:15:06;;;;;;;;;;;;;;;20.11;48.11;101521.72;6157513;23;20270;-77
2022/05/12 02:17:32;;;;;;;;;;;;;;;20.10;48.08;101530.47;6157245;23;20344;-78
2022/05/12 02:19:57;;;;;;;;;;;;;;;20.11;48.27;101534.78;6157321;23;20318;-77
2022/05/12 02:22:23;;;;;;;;;;;;;;;20.11;48.13;101540.03;6157486;23;19951;-77
2022/05/12 02:24:48;;;;;;;;;;;;;;;20.10;48.19;101547.00;6157516;23;19917;-79
2022/05/12 02:27:13;;;;;;;;;;;;;;;20.10;48.13;101547.00;6157896;23;19913;-79
2022/05/12 02:29:38;;;;;;;;;;;;;;;20.10;48.36;101548.75;6157057;23;20326;-78
2022/05/12 02:32:04;;;;;;;;;;;;;;;20.10;48.26;101552.22;6157195;23;19913;-79
2022/05/12 02:34:29;;;;;;;;;;;;;;;20.09;48.12;101544.41;6157536;23;19948;-78
2022/05/12 02:37:00;;;;;;;;;;;;;;;20.08;48.28;101556.59;6106609;23;19917;-79
2022/05/12 02:39:29;;;;;;;;;;;;;;;20.09;48.09;101554.84;6156996;23;19962;-78
2022/05/12 02:41:55;;;;;;;;;;;;;;;20.09;48.07;101557.47;6157299;23;19912;-79
2022/05/12 02:44:20;;;;;;;;;;;;;;;20.08;48.06;101563.56;6157097;23;19999;-79
2022/05/12 02:46:45;;;;;;;;;;;;;;;20.09;48.09;101565.28;6130844;23;19917;-79
2022/05/12 02:49:10;;;;;;;;;;;;;;;20.09;48.09;101565.28;6106330;23;19912;-79
2022/05/12 02:51:36;;;;;;;;;;;;;;;20.08;47.99;101564.44;6106450;23;19936;-78
2022/05/12 02:54:01;;;;;;;;;;;;;;;20.07;48.09;101562.69;6157017;23;19947;-79
2022/05/12 02:56:26;;;;;;;;;;;;;;;20.07;47.94;101570.53;6157067;23;20322;-79
2022/05/12 02:58:52;;;;;;;;;;;;;;;20.07;48.01;101575.75;6130701;23;19987;-79
2022/05/12 03:01:17;;;;;;;;;;;;;;;20.08;48.05;101581.88;6157015;23;19938;-79
2022/05/12 03:03:42;;;;;;;;;;;;;;;20.07;48.10;101583.59;6155073;23;19917;-79
2022/05/12 03:06:10;;;;;;;;;;;;;;;20.07;48.05;101586.19;6156981;23;19995;-79
2022/05/12 03:08:35;;;;;;;;;;;;;;;20.07;48.09;101585.34;6158347;23;19928;-78
2022/05/12 03:11:02;;;;;;;;;;;;;;;20.06;48.13;101589.72;6157157;23;19912;-77
2022/05/12 03:13:27;;;;;;;;;;;;;;;20.06;48.06;101594.06;6131536;23;19913;-78
2022/05/12 03:15:54;;;;;;;;;;;;;;;20.06;48.01;101596.69;6157454;23;19912;-80
2022/05/12 03:18:19;;;;;;;;;;;;;;;20.04;48.04;101601.06;6157121;23;20211;-79
2022/05/12 03:20:44;;;;;;;;;;;;;;;20.05;48.05;101605.38;6156698;23;19923;-78
2022/05/12 03:23:10;;;;;;;;;;;;;;;20.04;48.01;101599.31;6156936;23;19923;-78
2022/05/12 03:25:35;;;;;;;;;;;;;;;20.04;48.08;101607.13;6130994;23;20289;-79
2022/05/12 03:28:00;;;;;;;;;;;;;;;20.04;48.03;101606.28;6130818;23;19916;-79
2022/05/12 03:30:26;;;;;;;;;;;;;;;20.03;47.88;101610.63;6130733;23;19938;-79
2022/05/12 03:32:51;;;;;;;;;;;;;;;20.03;48.13;101620.22;6131054;23;20249;-78
2022/05/12 03:35:16;;;;;;;;;;;;;;;20.03;47.98;101620.22;6157697;23;20241;-78
2022/05/12 03:37:42;;;;;;;;;;;;;;;20.02;48.06;101619.34;6130813;23;19920;-78
2022/05/12 03:40:08;;;;;;;;;;;;;;;20.02;48.12;101618.50;6130608;23;20347;-78
2022/05/12 03:42:34;;;;;;;;;;;;;;;20.02;47.98;101624.56;6130492;23;19917;-78
2022/05/12 03:44:59;;;;;;;;;;;;;;;20.02;47.97;101623.72;6130608;23;20288;-77
2022/05/12 03:47:33;;;;;;;;;;;;;;;20.01;47.91;101628.06;6157014;23;19913;-77
2022/05/12 03:50:10;;;;;;;;;;;;;;;20.01;47.85;101632.41;6158718;23;19915;-77
2022/05/12 03:52:35;;;;;;;;;;;;;;;20.00;47.93;101631.56;6131229;23;19913;-78
2022/05/12 03:55:01;;;;;;;;;;;;;;;20.00;47.82;101634.16;6130517;23;20384;-77
2022/05/12 03:57:27;;;;;;;;;;;;;;;20.00;47.79;101643.75;6130630;23;20326;-77
2022/05/12 03:59:53;;;;;;;;;;;;;;;20.00;47.80;101647.22;6156711;23;20294;-77
2022/05/12 04:02:18;;;;;;;;;;;;;;;20.01;48.00;101648.09;6130557;23;19912;-77
2022/05/12 04:04:46;;;;;;;;;;;;;;;19.99;47.79;101653.34;6155567;23;20382;-77
2022/05/12 04:07:13;;;;;;;;;;;;;;;19.99;47.78;101647.22;6156677;23;20325;-77
2022/05/12 04:09:38;;;;;;;;;;;;;;;19.99;47.98;101647.22;6130665;23;19913;-77
2022/05/12 04:12:05;;;;;;;;;;;;;;;19.99;47.74;101650.72;6106270;23;19935;-77
2022/05/12 04:14:31;;;;;;;;;;;;;;;19.99;47.82;101655.97;6130903;23;19909;-77
2022/05/12 04:16:56;;;;;;;;;;;;;;;19.98;47.69;101656.81;6158336;23;19916;-78
2022/05/12 04:19:21;;;;;;;;;;;;;;;19.99;47.77;101662.91;6107970;23;20309;-78
2022/05/12 04:21:46;;;;;;;;;;;;;;;19.98;47.71;101655.97;6132626;23;19912;-77
2022/05/12 04:24:11;;;;;;;;;;;;;;;19.98;47.69;101667.25;6132094;23;19920;-77
2022/05/12 04:26:38;;;;;;;;;;;;;;;19.98;47.69;101663.78;6132426;23;19985;-78
2022/05/12 04:29:04;;;;;;;;;;;;;;;19.98;47.70;101672.50;6132335;23;19908;-77
2022/05/12 04:31:29;;;;;;;;;;;;;;;19.98;47.77;101666.41;6158785;23;19987;-79
2022/05/12 04:36:38;;;;;;;;;;;;;;;20.01;47.87;101676.81;6136343;23;20368;-81
2022/05/12 04:39:03;;;;;;;;;;;;;;;20.03;47.79;101677.69;6132308;23;19904;-81
2022/05/12 04:41:29;;;;;;;;;;;;;;;20.03;47.73;101683.78;6132137;23;19919;-81
2022/05/12 04:43:54;;;;;;;;;;;;;;;20.04;47.81;101690.75;6158520;23;19912;-81
2022/05/12 04:46:20;;;;;;;;;;;;;;;20.04;47.68;101689.88;6108088;23;19916;-82
2022/05/12 04:48:45;;;;;;;;;;;;;;;20.03;47.71;101694.22;6107462;23;19920;-80
2022/05/12 04:51:10;;;;;;;;;;;;;;;20.04;47.68;101697.72;6158151;23;19921;-81
2022/05/12 04:53:36;;;;;;;;;;;;;;;20.02;47.69;101708.19;6132025;23;19993;-80
2022/05/12 04:56:01;;;;;;;;;;;;;;;20.04;47.56;101708.19;6132262;23;20344;-81
2022/05/12 04:58:26;;;;;;;;;;;;;;;20.04;47.54;101709.03;6107698;23;19913;-85
2022/05/12 05:00:52;;;;;;;;;;;;;;;19.98;47.53;101716.03;6132931;23;19909;-83
2022/05/12 05:03:17;;;;;;;;;;;;;;;19.89;47.73;101716.97;6158202;23;19917;-83
2022/05/12 05:05:43;;;;;;;;;;;;;;;19.86;47.61;101723.06;6132466;23;19924;-81
2022/05/12 05:08:11;;;;;;;;;;;;;;;19.86;47.67;101733.53;6132368;23;20322;-83
2022/05/12 05:10:36;;;;;;;;;;;;;;;19.87;47.58;101722.19;6132323;23;19921;-85
2022/05/12 05:13:02;;;;;;;;;;;;;;;19.89;47.36;101724.81;6132378;23;19916;-81
2022/05/12 05:15:27;;;;;;;;;;;;;;;19.96;47.21;101725.63;6110286;23;19912;-83
2022/05/12 05:17:52;;;;;;;;;;;;;;;19.99;47.23;101736.94;6107811;23;19964;-78
2022/05/12 05:20:19;;;;;;;;;;;;;;;20.04;47.33;101731.69;6132208;23;19909;-80
2022/05/12 05:22:46;;;;;;;;;;;;;;;20.03;47.21;101728.19;6158335;23;19987;-81
2022/05/12 05:25:11;;;;;;;;;;;;;;;20.02;47.11;101734.31;6131887;23;19966;-83
2022/05/12 05:27:37;;;;;;;;;;;;;;;20.04;47.10;101740.41;6132156;23;20330;-78
2022/05/12 05:30:04;;;;;;;;;;;;;;;20.13;46.98;101744.69;6131815;23;19941;-79
2022/05/12 05:32:30;;;;;;;;;;;;;;;20.22;46.86;101744.63;6131954;23;19908;-81
2022/05/12 05:34:56;;;;;;;;;;;;;;;20.29;46.97;101753.31;6158202;23;19920;-78
2022/05/12 05:37:21;;;;;;;;;;;;;;;20.32;46.93;101761.16;6131503;23;19916;-78
2022/05/12 05:39:46;;;;;;;;;;;;;;;20.37;46.87;101769.81;6131875;23;19959;-78
2022/05/12 05:42:13;;;;;;;;;;;;;;;20.40;46.73;101768.91;6131565;23;19970;-78
2022/05/12 05:44:39;;;;;;;;;;;;;;;20.41;46.60;101768.06;6157777;23;19920;-78
2022/05/12 05:47:04;;;;;;;;;;;;;;;20.44;46.56;101766.28;6131603;23;19908;-78
2022/05/12 05:49:30;;;;;;;;;;;;;;;20.46;46.63;101776.72;6131690;23;20373;-78
2022/05/12 05:54:40;;;;;;;;;;;;;;;20.51;46.53;101794.13;6157894;23;19931;-78
2022/05/12 05:57:05;;;;;;;;;;;;;;;20.54;46.43;101798.47;6133114;23;20322;-77
2022/05/12 05:59:30;;;;;;;;;;;;;;;20.54;46.46;101806.31;6157767;23;19959;-78
2022/05/12 06:01:56;;;;;;;;;;;;;;;20.57;46.35;101803.69;6157442;23;19912;-79
2022/05/12 06:04:21;;;;;;;;;;;;;;;20.59;46.36;101801.94;6157288;23;19924;-80
2022/05/12 06:06:46;;;;;;;;;;;;;;;20.57;46.33;101808.03;6131392;23;20317;-80
2022/05/12 06:09:15;;;;;;;;;;;;;;;20.57;46.19;101813.25;6106793;23;20281;-79
2022/05/12 06:11:44;;;;;;;;;;;;;;;20.58;45.87;101812.41;6157887;23;20254;-79
2022/05/12 06:14:10;;;;;;;;;;;;;;;20.59;45.84;101819.38;6157243;23;19923;-80
2022/05/12 06:16:35;;;;;;;;;;;;;;;20.62;45.77;101824.59;6157945;23;19951;-79
2022/05/12 06:19:01;;;;;;;;;;;;;;;20.64;45.77;101826.31;6108904;23;19917;-80
2022/05/12 06:21:26;;;;;;;;;;;;;;;20.66;45.50;101831.53;6131603;23;19908;-80
2022/05/12 06:23:52;;;;;;;;;;;;;;;20.68;45.40;101833.25;6131301;23;19940;-80
2022/05/12 06:26:17;;;;;;;;;;;;;;;20.69;45.28;101845.47;6131247;23;19916;-80
2022/05/12 06:28:45;;;;;;;;;;;;;;;20.69;45.01;101839.38;6131387;23;19919;-80
2022/05/12 06:31:15;;;;;;;;;;;;;;;20.69;45.04;101845.47;6131432;23;19912;-80
2022/05/12 06:33:41;;;;;;;;;;;;;;;20.68;44.99;101854.19;6131171;23;19915;-81
2022/05/12 06:36:07;;;;;;;;;;;;;;;20.68;44.94;101856.78;6106825;23;19912;-79
2022/05/12 06:38:34;;;;;;;;;;;;;;;20.73;44.86;101862.88;6158300;23;19930;-79
2022/05/12 06:41:00;;;;;;;;;;;;;;;20.75;44.70;101860.25;6132346;23;19912;-81
2022/05/12 06:43:25;;;;;;;;;;;;;;;20.78;44.63;101862.00;6131585;23;20300;-80
2022/05/12 06:45:51;;;;;;;;;;;;;;;20.79;44.53;101861.97;6131660;23;19951;-80
2022/05/12 06:48:16;;;;;;;;;;;;;;;20.81;44.49;101860.19;6132131;23;19995;-80
2022/05/12 06:50:41;;;;;;;;;;;;;;;20.84;44.32;101870.66;6131364;23;19951;-81
2022/05/12 06:53:07;;;;;;;;;;;;;;;20.85;44.30;101876.75;6157329;23;19908;-80
2022/05/12 06:55:32;;;;;;;;;;;;;;;20.87;44.05;101881.09;6131657;23;19913;-81
2022/05/12 06:57:57;;;;;;;;;;;;;;;20.90;44.07;101880.19;6157145;23;19920;-80
2022/05/12 07:00:23;;;;;;;;;;;;;;;20.92;44.07;101887.16;6156952;23;19909;-81
2022/05/12 07:02:49;;;;;;;;;;;;;;;20.94;43.85;101887.16;6156927;23;19916;-80
2022/05/12 07:05:15;;;;;;;;;;;;;;;20.96;43.78;101890.63;6156751;23;19921;-80
2022/05/12 07:07:41;;;;;;;;;;;;;;;20.97;43.84;101887.16;6157541;23;19916;-81
2022/05/12 07:10:08;;;;;;;;;;;;;;;21.00;43.68;101891.50;6156847;23;20344;-80
2022/05/12 07:12:33;;;;;;;;;;;;;;;21.02;43.75;101895.84;6157005;23;19916;-80
2022/05/12 07:14:59;;;;;;;;;;;;;;;21.02;43.60;101893.22;6131060;23;19912;-81
2022/05/12 07:17:25;;;;;;;;;;;;;;;21.03;43.55;101899.31;6156911;23;20370;-82
2022/05/12 07:19:52;;;;;;;;;;;;;;;21.01;43.45;101894.06;6130713;23;19916;-80
2022/05/12 07:27:44;;;;;;;;;;;;;;;21.05;43.17;101905.41;6157167;23;19915;-81
2022/05/12 07:30:11;;;;;;;;;;;;;;;21.06;42.99;101907.16;6131154;23;19913;-80
2022/05/12 07:32:37;;;;;;;;;;;;;;;21.06;43.20;101913.25;6157129;23;19909;-80
2022/05/12 07:35:04;;;;;;;;;;;;;;;21.06;43.07;101921.09;6130941;23;20269;-80
2022/05/12 07:37:29;;;;;;;;;;;;;;;21.08;43.06;101928.94;6131307;23;20321;-80
2022/05/12 07:39:55;;;;;;;;;;;;;;;21.07;42.88;101921.97;6156710;23;19940;-80
2022/05/12 07:42:20;;;;;;;;;;;;;;;21.07;42.89;101919.34;6106423;23;20083;-80
2022/05/12 07:44:45;;;;;;;;;;;;;;;21.08;42.75;101923.72;6106134;23;19940;-80
2022/05/12 07:47:13;;;;;;;;;;;;;;;21.09;42.84;101921.06;6131039;23;19917;-80
2022/05/12 07:49:39;;;;;;;;;;;;;;;21.09;42.74;101925.44;6131674;23;19945;-80
2022/05/12 07:52:06;;;;;;;;;;;;;;;21.09;42.58;101925.44;6132490;23;20348;-79
2022/05/12 07:54:32;;;;;;;;;;;;;;;21.10;42.67;101924.53;6158456;23;19987;-80
2022/05/12 07:56:57;;;;;;;;;;;;;;;21.09;42.39;101930.69;6108116;23;19951;-80
2022/05/12 07:59:22;;;;;;;;;;;;;;;21.08;42.44;101932.44;6132504;23;19913;-80
2022/05/12 08:01:47;;;;;;;;;;;;;;;21.09;42.44;101931.53;6132526;23;19919;-80
2022/05/12 08:04:13;;;;;;;;;;;;;;;21.10;42.47;101929.78;6158164;23;19923;-79
2022/05/12 08:06:39;;;;;;;;;;;;;;;21.10;42.21;101930.69;6158755;23;20317;-80
2022/05/12 08:09:05;;;;;;;;;;;;;;;21.09;42.06;101933.28;6132342;23;19912;-80
2022/05/12 08:11:31;;;;;;;;;;;;;;;21.11;42.21;101937.63;6132203;23;19908;-81
2022/05/12 08:13:56;;;;;;;;;;;;;;;21.10;41.75;101927.16;6132561;23;19920;-80
2022/05/12 08:16:21;;;;;;;;;;;;;;;21.09;41.88;101926.31;6159076;23;19913;-80
2022/05/12 08:18:49;;;;;;;;;;;;;;;21.09;41.85;101928.06;6132887;23;19920;-80
2022/05/12 08:21:15;;;;;;;;;;;;;;;21.10;41.81;101941.16;6134172;23;19936;-80
2022/05/12 08:23:40;;;;;;;;;;;;;;;21.09;41.72;101943.75;6158427;23;20219;-80
2022/05/12 08:26:06;;;;;;;;;;;;;;;21.09;41.62;101928.91;6158501;23;19958;-80
2022/05/12 08:28:31;;;;;;;;;;;;;;;21.09;41.44;101933.28;6132285;23;19932;-80
2022/05/12 08:30:57;;;;;;;;;;;;;;;21.08;41.38;101934.19;6158924;23;19995;-80
2022/05/12 08:33:22;;;;;;;;;;;;;;;21.09;41.46;101941.16;6132602;23;19987;-80
2022/05/12 08:35:48;;;;;;;;;;;;;;;21.08;41.17;101947.28;6132109;23;19909;-80
2022/05/12 08:38:14;;;;;;;;;;;;;;;21.08;41.09;101948.13;6108099;23;19919;-80
2022/05/12 08:40:39;;;;;;;;;;;;;;;21.10;41.26;101954.22;6132699;23;19939;-80
2022/05/12 08:43:11;;;;;;;;;;;;;;;21.11;41.27;101955.94;6158624;23;19912;-80
2022/05/12 08:45:36;;;;;;;;;;;;;;;21.12;41.21;101959.44;6132561;23;19915;-80
2022/05/12 08:48:01;;;;;;;;;;;;;;;21.09;41.02;101955.09;6108408;23;19943;-80
2022/05/12 08:50:28;;;;;;;;;;;;;;;21.08;41.08;101963.84;6108886;23;19948;-79
2022/05/12 08:52:57;;;;;;;;;;;;;;;21.07;41.02;101951.63;6132063;23;19908;-79
2022/05/12 08:55:54;;;;;;;;;;;;;;;21.06;41.14;101955.13;6157976;23;19987;-79
2022/05/12 08:58:22;;;;;;;;;;;;;;;21.07;40.90;101956.00;6125039;23;19931;-79
2022/05/12 09:00:56;;;;;;;;;;;;;;;21.05;40.99;101955.13;6131721;23;19932;-79
2022/05/12 09:03:40;;;;;;;;;;;;;;;21.02;41.08;101961.25;6159147;23;19959;-79
2022/05/12 09:06:28;;;;;;;;;;;;;;;21.04;40.92;101961.25;6158624;23;19924;-80
2022/05/12 09:09:12;;;;;;;;;;;;;;;21.02;41.11;101958.63;6149692;23;19917;-80
2022/05/12 09:11:42;;;;;;;;;;;;;;;21.01;40.87;101956.88;6157851;23;19915;-79
2022/05/12 09:14:15;;;;;;;;;;;;;;;21.01;40.73;101963.88;6155976;23;19979;-79
2022/05/12 09:16:40;;;;;;;;;;;;;;;21.01;40.85;101962.13;6158058;23;19916;-81
2022/05/12 09:19:06;;;;;;;;;;;;;;;20.99;40.84;101960.38;6131907;23;19913;-80
2022/05/12 09:21:35;;;;;;;;;;;;;;;20.98;40.69;101951.69;6157847;23;19909;-79
2022/05/12 09:24:00;;;;;;;;;;;;;;;20.96;40.68;101958.66;6131849;23;19909;-79
2022/05/12 09:26:37;;;;;;;;;;;;;;;20.95;40.73;101963.03;6107300;23;20047;-79
2022/05/12 09:29:22;;;;;;;;;;;;;;;20.95;40.69;101967.41;6157699;23;19916;-79
2022/05/12 09:31:52;;;;;;;;;;;;;;;20.93;40.73;101963.94;6146896;23;19908;-79
2022/05/12 09:34:18;;;;;;;;;;;;;;;20.93;40.70;101962.19;6131692;23;19908;-79
2022/05/12 09:36:43;;;;;;;;;;;;;;;20.92;40.72;101962.19;6131538;23;19971;-79
2022/05/12 09:39:08;;;;;;;;;;;;;;;20.92;40.64;101952.56;6131501;23;19917;-79
2022/05/12 09:41:41;;;;;;;;;;;;;;;20.92;40.82;101965.66;6131775;23;19913;-78
2022/05/12 09:44:23;;;;;;;;;;;;;;;20.91;40.46;101960.47;6131631;23;20211;-78
2022/05/12 09:46:56;;;;;;;;;;;;;;;20.87;40.23;101961.34;6157871;23;19909;-79
2022/05/12 09:49:23;;;;;;;;;;;;;;;20.87;40.45;101974.44;6157787;23;19913;-83
2022/05/12 09:51:48;;;;;;;;;;;;;;;20.83;40.18;101968.31;6157220;23;19909;-80
2022/05/12 09:54:15;;;;;;;;;;;;;;;20.82;40.11;101968.31;6131603;23;19940;-81
2022/05/12 09:56:40;;;;;;;;;;;;;;;20.82;40.17;101965.72;6131595;23;19915;-78
2022/05/12 09:59:14;;;;;;;;;;;;;;;20.80;40.33;101973.59;6157844;23;19909;-78
2022/05/12 10:01:52;;;;;;;;;;;;;;;20.79;40.16;101974.44;6131786;23;19932;-79
2022/05/12 10:10:15;;;;;;;;;;;;;;;20.75;39.67;101986.69;6157361;23;19979;-79
2022/05/12 10:12:46;;;;;;;;;;;;;;;20.72;39.65;101972.75;6156901;23;19912;-78
2022/05/12 10:15:31;;;;;;;;;;;;;;;20.73;39.57;101987.56;6157675;23;19909;-79
2022/05/12 10:18:01;;;;;;;;;;;;;;;20.74;39.42;101973.63;6131384;23;19916;-79
2022/05/12 10:20:28;;;;;;;;;;;;;;;20.71;39.39;101979.72;6131604;23;19909;-79
2022/05/12 10:22:59;;;;;;;;;;;;;;;20.71;39.29;101986.72;6130829;23;19908;-79
2022/05/12 10:25:29;;;;;;;;;;;;;;;20.71;39.38;101979.72;6156968;23;19908;-79
2022/05/12 10:28:06;;;;;;;;;;;;;;;20.71;39.10;101982.34;6157433;23;20296;-79
2022/05/12 10:30:38;;;;;;;;;;;;;;;20.71;39.23;101986.72;6131123;23;19932;-79
2022/05/12 10:33:30;;;;;;;;;;;;;;;20.68;38.80;101976.25;6131349;23;19963;-79
2022/05/12 10:35:55;;;;;;;;;;;;;;;20.66;38.78;101978.88;6133887;23;19908;-79
2022/05/12 10:38:29;;;;;;;;;;;;;;;20.66;38.87;101981.47;6131312;23;20341;-79
2022/05/12 10:41:00;;;;;;;;;;;;;;;20.66;38.66;101978.00;6157278;23;19909;-78
2022/05/12 10:43:45;;;;;;;;;;;;;;;20.66;38.59;101980.63;6157252;23;20214;-78
2022/05/12 10:46:12;;;;;;;;;;;;;;;20.66;38.46;101975.38;6130705;23;19940;-78
2022/05/12 10:48:47;;;;;;;;;;;;;;;20.67;38.59;101970.16;6131293;23;19913;-78
2022/05/12 10:51:22;;;;;;;;;;;;;;;20.68;38.44;101979.72;6130971;23;19909;-78
2022/05/12 10:53:48;;;;;;;;;;;;;;;20.65;38.31;101977.13;6131160;23;19909;-78
2022/05/12 10:56:23;;;;;;;;;;;;;;;20.65;38.07;101977.13;6130941;23;19915;-78
2022/05/12 10:58:48;;;;;;;;;;;;;;;20.64;38.08;101970.16;6130910;23;19908;-78
2022/05/12 11:01:19;;;;;;;;;;;;;;;20.65;38.07;101974.53;6156887;23;19908;-78
2022/05/12 11:04:04;;;;;;;;;;;;;;;20.66;38.17;101967.53;6130759;23;19908;-78
2022/05/12 11:06:33;;;;;;;;;;;;;;;20.65;37.89;101964.06;6125433;23;19923;-78
2022/05/12 11:09:17;;;;;;;;;;;;;;;20.65;37.98;101963.19;6130822;23;19916;-79
2022/05/12 11:11:45;;;;;;;;;;;;;;;20.66;37.89;101957.09;6130670;23;19916;-79
2022/05/12 11:14:44;;;;;;;;;;;;;;;20.67;38.03;101964.06;6130640;23;19916;-78
2022/05/12 11:17:09;;;;;;;;;;;;;;;20.66;37.67;101962.31;6108310;23;19916;-78
2022/05/12 11:19:35;;;;;;;;;;;;;;;20.66;37.53;101957.09;6130768;23;19912;-80
2022/05/12 11:22:03;;;;;;;;;;;;;;;20.65;37.55;101964.06;6156989;23;19909;-79
2022/05/12 11:24:28;;;;;;;;;;;;;;;20.66;37.56;101963.16;6132161;23;20314;-78
2022/05/12 11:26:57;;;;;;;;;;;;;;;20.66;37.54;101962.31;6132453;23;19991;-78
2022/05/12 11:32:23;;;;;;;;;;;;;;;20.64;37.11;101962.31;6159012;23;20380;-78
2022/05/12 11:34:50;;;;;;;;;;;;;;;20.64;37.07;101958.84;6158906;23;19908;-79
2022/05/12 11:37:35;;;;;;;;;;;;;;;20.64;36.91;101962.31;6158582;23;19913;-78
2022/05/12 11:40:06;;;;;;;;;;;;;;;20.65;37.17;101969.28;6158829;23;19912;-79
2022/05/12 11:45:30;;;;;;;;;;;;;;;20.65;36.69;101966.69;6098263;23;19912;-79
2022/05/12 11:48:28;;;;;;;;;;;;;;;20.64;36.69;101970.16;6132769;23;19927;-79
2022/05/12 11:51:17;;;;;;;;;;;;;;;20.66;36.79;101971.03;6084820;23;19909;-80
2022/05/12 11:53:45;;;;;;;;;;;;;;;20.67;37.01;101969.28;6121303;23;20357;-78
2022/05/12 11:56:11;;;;;;;;;;;;;;;20.67;36.66;101964.94;6158710;23;20340;-79
2022/05/12 11:58:39;;;;;;;;;;;;;;;20.68;36.62;101957.94;6158705;23;19932;-79
2022/05/12 12:01:07;;;;;;;;;;;;;;;20.68;36.70;101971.03;6158651;23;19959;-79
2022/05/12 12:03:32;;;;;;;;;;;;;;;20.67;36.69;101967.53;6159090;23;19909;-79
2022/05/12 12:06:00;;;;;;;;;;;;;;;20.67;36.44;101962.31;6132182;23;19920;-79
2022/05/12 12:08:31;;;;;;;;;;;;;;;20.65;36.51;101974.53;6132446;23;19917;-80
2022/05/12 12:11:15;;;;;;;;;;;;;;;20.67;36.34;101971.91;6158503;23;19909;-80
2022/05/12 12:13:50;;;;;;;;;;;;;;;20.67;36.07;101961.44;6158583;23;19909;-79
2022/05/12 12:16:17;;;;;;;;;;;;;;;20.67;35.96;101961.44;6132494;23;19909;-79
2022/05/12 12:18:45;;;;;;;;;;;;;;;20.64;35.93;101964.91;6158820;23;19955;-80
2022/05/12 12:21:28;;;;;;;;;;;;;;;20.66;35.81;101964.94;6132790;23;20318;-79
2022/05/12 12:24:03;;;;;;;;;;;;;;;20.66;36.01;101960.56;6132755;23;20313;-80
2022/05/12 12:26:30;;;;;;;;;;;;;;;20.67;35.83;101966.69;6132683;23;20001;-80
2022/05/12 12:29:04;;;;;;;;;;;;;;;20.66;35.64;101964.94;6158665;23;20325;-80
2022/05/12 12:31:37;;;;;;;;;;;;;;;20.66;35.63;101965.78;6132513;23;19923;-80
2022/05/12 12:34:17;;;;;;;;;;;;;;;20.66;35.49;101972.78;6158510;23;19963;-79
2022/05/12 12:36:42;;;;;;;;;;;;;;;20.66;35.48;101975.38;6158120;23;20023;-79
2022/05/12 12:39:12;;;;;;;;;;;;;;;20.65;35.38;101969.28;6158504;23;20214;-79
2022/05/12 12:41:42;;;;;;;;;;;;;;;20.66;35.43;101973.63;6132331;23;19909;-79
2022/05/12 12:44:09;;;;;;;;;;;;;;;20.67;35.68;101975.38;6132250;23;19991;-79
2022/05/12 12:46:45;;;;;;;;;;;;;;;20.67;35.32;101974.53;6132289;23;20357;-79
2022/05/12 12:49:13;;;;;;;;;;;;;;;20.67;35.18;101971.91;6132186;23;19939;-79
2022/05/12 12:51:39;;;;;;;;;;;;;;;20.66;35.18;101963.16;6131752;23;19951;-79
2022/05/12 12:57:19;;;;;;;;;;;;;;;20.68;35.47;101963.19;6158293;23;19935;-79
2022/05/12 12:59:59;;;;;;;;;;;;;;;20.67;35.10;101964.94;6122743;23;19947;-79
2022/05/12 13:02:32;;;;;;;;;;;;;;;20.67;35.01;101970.16;6157923;23;19908;-79
2022/05/12 13:05:01;;;;;;;;;;;;;;;20.67;35.11;101971.91;6131736;23;19917;-79